createdAt,value
2018-06-11T00:00:12.043Z,7.33
2018-06-11T00:02:42.929Z,7.50
2018-06-11T00:05:13.848Z,7.17
2018-06-11T00:07:45.062Z,7.37
2018-06-11T00:10:16.254Z,9.20
2018-06-11T00:12:47.045Z,6.77
2018-06-11T00:15:17.561Z,7.17
2018-06-11T00:17:48.295Z,8.07
2018-06-11T00:20:19.037Z,19.63
2018-06-11T00:22:49.813Z,8.97
2018-06-11T00:25:21.000Z,9.27
2018-06-11T00:27:51.334Z,10.73
2018-06-11T00:30:22.094Z,6.77
2018-06-11T00:32:53.503Z,9.70
2018-06-11T00:35:24.602Z,9.73
2018-06-11T00:37:55.353Z,7.57
2018-06-11T00:40:26.120Z,7.40
2018-06-11T00:42:56.582Z,7.60
2018-06-11T00:45:27.820Z,8.47
2018-06-11T00:47:58.942Z,8.13
2018-06-11T00:50:29.738Z,8.63
2018-06-11T00:53:00.498Z,8.07
2018-06-11T00:55:42.643Z,7.90
2018-06-11T00:58:13.663Z,10.47
2018-06-11T01:00:44.257Z,8.77
2018-06-11T01:03:15.064Z,9.63
2018-06-11T01:05:46.069Z,10.33
2018-06-11T01:08:17.122Z,8.57
2018-06-11T01:10:47.141Z,14.23
2018-06-11T01:13:18.039Z,9.43
2018-06-11T01:15:48.287Z,10.47
2018-06-11T01:18:19.326Z,9.93
2018-06-11T01:20:50.474Z,11.37
2018-06-11T01:23:21.722Z,10.73
2018-06-11T01:26:03.949Z,12.23
2018-06-11T01:28:46.421Z,11.83
2018-06-11T01:31:17.331Z,12.00
2018-06-11T01:33:48.142Z,10.70
2018-06-11T01:36:18.854Z,10.73
2018-06-11T01:38:49.626Z,13.17
2018-06-11T01:41:20.538Z,12.33
2018-06-11T01:43:51.503Z,12.50
2018-06-11T01:46:22.289Z,10.83
2018-06-11T01:48:52.538Z,13.10
2018-06-11T01:51:23.053Z,17.73
2018-06-11T01:53:53.829Z,15.23
2018-06-11T01:56:24.936Z,19.03
2018-06-11T01:58:55.702Z,17.40
2018-06-11T02:01:26.619Z,14.93
2018-06-11T02:03:56.713Z,14.67
2018-06-11T02:06:27.767Z,15.17
2018-06-11T02:08:58.343Z,14.13
2018-06-11T02:11:29.152Z,19.33
2018-06-11T02:14:00.848Z,16.17
2018-06-11T02:16:31.520Z,12.77
2018-06-11T02:19:01.947Z,14.13
2018-06-11T02:21:32.866Z,12.20
2018-06-11T02:24:04.078Z,12.43
2018-06-11T02:26:34.762Z,11.63
2018-06-11T02:29:05.231Z,12.47
2018-06-11T02:31:34.953Z,11.17
2018-06-11T02:34:05.133Z,12.47
2018-06-11T02:36:35.908Z,11.90
2018-06-11T02:39:08.966Z,10.50
2018-06-11T02:41:39.676Z,9.70
2018-06-11T02:44:10.787Z,9.80
2018-06-11T02:46:41.678Z,10.47
2018-06-11T02:49:12.294Z,14.60
2018-06-11T02:51:43.070Z,11.73
2018-06-11T02:54:13.974Z,14.77
2018-06-11T02:56:44.576Z,11.17
2018-06-11T02:59:15.354Z,11.27
2018-06-11T03:01:46.275Z,12.00
2018-06-11T03:04:17.159Z,12.33
2018-06-11T03:06:48.463Z,12.13
2018-06-11T03:09:19.077Z,13.80
2018-06-11T03:11:49.952Z,14.23
2018-06-11T03:14:21.475Z,10.70
2018-06-11T03:16:52.585Z,10.67
2018-06-11T03:19:23.327Z,11.43
2018-06-11T03:21:54.715Z,13.73
2018-06-11T03:24:25.105Z,10.23
2018-06-11T03:26:55.940Z,13.23
2018-06-11T03:29:26.650Z,10.60
2018-06-11T03:31:57.774Z,16.50
2018-06-11T03:34:28.491Z,13.13
2018-06-11T03:36:59.186Z,14.77
2018-06-11T03:39:29.811Z,17.93
2018-06-11T03:42:01.021Z,14.03
2018-06-11T03:44:31.696Z,13.67
2018-06-11T03:47:02.346Z,12.30
2018-06-11T03:49:33.112Z,16.33
2018-06-11T03:52:04.450Z,11.67
2018-06-11T03:54:36.007Z,12.63
2018-06-11T03:57:06.893Z,12.87
2018-06-11T03:59:37.659Z,17.10
2018-06-11T04:02:07.918Z,15.33
2018-06-11T04:04:38.773Z,16.07
2018-06-11T04:07:09.718Z,13.90
2018-06-11T04:09:40.508Z,14.60
2018-06-11T04:12:11.997Z,11.07
2018-06-11T04:14:42.772Z,10.53
2018-06-11T04:17:13.612Z,14.63
2018-06-11T04:19:44.925Z,17.53
2018-06-11T04:22:16.439Z,10.77
2018-06-11T04:24:47.194Z,12.83
2018-06-11T04:27:17.973Z,11.90
2018-06-11T04:29:48.686Z,12.37
2018-06-11T04:32:20.685Z,13.77
2018-06-11T04:34:51.484Z,14.27
2018-06-11T04:37:22.247Z,10.67
2018-06-11T04:39:53.184Z,12.43
2018-06-11T04:42:23.802Z,12.63
2018-06-11T04:44:54.165Z,10.90
2018-06-11T04:47:25.013Z,9.90
2018-06-11T04:49:56.082Z,14.33
2018-06-11T04:52:27.027Z,8.43
2018-06-11T04:54:57.326Z,13.47
2018-06-11T04:57:27.980Z,11.33
2018-06-11T04:59:59.452Z,8.20
2018-06-11T05:02:30.375Z,8.30
2018-06-11T05:05:01.214Z,11.23
2018-06-11T05:07:31.937Z,7.33
2018-06-11T05:10:02.647Z,9.07
2018-06-11T05:12:33.739Z,19.10
2018-06-11T05:15:04.359Z,13.03
2018-06-11T05:17:35.780Z,10.17
2018-06-11T05:20:07.369Z,11.47
2018-06-11T05:22:38.152Z,8.90
2018-06-11T05:25:08.963Z,10.67
2018-06-11T05:27:39.626Z,8.43
2018-06-11T05:30:10.585Z,9.10
2018-06-11T05:32:41.280Z,9.63
2018-06-11T05:35:12.117Z,12.00
2018-06-11T05:37:42.369Z,11.27
2018-06-11T05:40:13.026Z,9.03
2018-06-11T05:42:43.962Z,11.83
2018-06-11T05:45:14.729Z,8.47
2018-06-11T05:47:45.573Z,9.50
2018-06-11T05:50:16.401Z,7.50
2018-06-11T05:52:47.157Z,9.80
2018-06-11T05:55:17.976Z,6.13
2018-06-11T05:57:50.050Z,10.30
2018-06-11T06:00:20.497Z,38.37
2018-06-11T06:02:51.152Z,19.40
2018-06-11T06:05:21.793Z,42.70
2018-06-11T06:07:52.473Z,6.17
2018-06-11T06:10:24.439Z,9.17
2018-06-11T06:12:54.800Z,25.93
2018-06-11T06:15:25.203Z,7.87
2018-06-11T06:17:56.148Z,13.17
2018-06-11T06:20:26.979Z,8.23
2018-06-11T06:22:58.139Z,13.50
2018-06-11T06:25:28.225Z,8.87
2018-06-11T06:27:59.534Z,22.40
2018-06-11T06:30:30.780Z,8.67
2018-06-11T06:33:01.693Z,7.50
2018-06-11T06:35:33.415Z,9.30
2018-06-11T06:38:04.245Z,7.20
2018-06-11T06:40:35.206Z,8.63
2018-06-11T06:43:05.572Z,8.27
2018-06-11T06:45:36.412Z,9.67
2018-06-11T06:48:07.589Z,8.53
2018-06-11T06:50:40.990Z,8.13
2018-06-11T06:53:11.833Z,7.13
2018-06-11T06:55:42.736Z,9.40
2018-06-11T06:58:13.594Z,8.10
2018-06-11T07:00:44.491Z,5.87
2018-06-11T07:03:15.483Z,11.30
2018-06-11T07:05:46.067Z,4.70
2018-06-11T07:08:16.896Z,5.97
2018-06-11T07:10:47.888Z,11.10
2018-06-11T07:13:19.240Z,8.27
2018-06-11T07:15:50.741Z,5.03
2018-06-11T07:18:21.214Z,9.80
2018-06-11T07:20:51.869Z,7.97
2018-06-11T07:23:22.591Z,6.00
2018-06-11T07:25:53.544Z,6.80
2018-06-11T07:28:25.638Z,6.80
2018-06-11T07:30:56.533Z,9.77
2018-06-11T07:33:27.170Z,7.43
2018-06-11T07:35:58.345Z,5.73
2018-06-11T07:38:29.264Z,6.13
2018-06-11T07:41:00.463Z,3.67
2018-06-11T07:43:31.114Z,6.60
2018-06-11T07:46:01.957Z,7.70
2018-06-11T07:48:32.297Z,4.90
2018-06-11T07:51:03.166Z,8.13
2018-06-11T07:53:34.262Z,10.43
2018-06-11T07:56:05.707Z,4.80
2018-06-11T07:58:35.774Z,7.90
2018-06-11T08:01:06.612Z,5.70
2018-06-11T08:03:37.716Z,6.37
2018-06-11T08:06:08.393Z,6.83
2018-06-11T08:08:39.329Z,4.90
2018-06-11T08:11:10.209Z,6.20
2018-06-11T08:13:41.162Z,3.93
2018-06-11T08:16:11.446Z,4.50
2018-06-11T08:18:42.445Z,6.50
2018-06-11T08:21:13.358Z,4.53
2018-06-11T08:23:43.301Z,6.30
2018-06-11T08:26:14.304Z,3.90
2018-06-11T08:28:44.556Z,3.93
2018-06-11T08:31:15.105Z,15.17
2018-06-11T08:33:45.740Z,6.00
2018-06-11T08:36:16.045Z,6.43
2018-06-11T08:38:46.753Z,10.43
2018-06-11T08:41:17.683Z,6.37
2018-06-11T08:43:48.498Z,5.00
2018-06-11T08:46:33.955Z,5.17
2018-06-11T08:49:04.641Z,4.80
2018-06-11T08:51:35.401Z,4.93
2018-06-11T08:54:06.451Z,5.73
2018-06-11T08:56:38.053Z,7.30
2018-06-11T08:59:08.524Z,5.13
2018-06-11T09:01:38.717Z,3.93
2018-06-11T09:04:09.421Z,5.30
2018-06-11T09:06:40.155Z,3.70
2018-06-11T09:09:10.862Z,4.03
2018-06-11T09:11:42.542Z,6.27
2018-06-11T09:14:13.511Z,8.43
2018-06-11T09:16:44.348Z,4.57
2018-06-11T09:19:14.380Z,7.37
2018-06-11T09:21:45.385Z,6.17
2018-06-11T09:24:16.130Z,6.27
2018-06-11T09:26:47.334Z,22.30
2018-06-11T09:29:18.276Z,7.43
2018-06-11T09:31:48.896Z,7.85
2018-06-11T09:34:21.342Z,9.57
2018-06-11T09:36:52.449Z,8.18
2018-06-11T09:39:23.478Z,7.15
2018-06-11T09:41:54.343Z,6.50
2018-06-11T09:44:25.808Z,4.97
2018-06-11T09:46:57.093Z,7.57
2018-06-11T09:49:28.687Z,6.90
2018-06-11T09:51:59.446Z,5.67
2018-06-11T09:54:30.186Z,7.73
2018-06-11T09:57:00.241Z,6.93
2018-06-11T09:59:31.151Z,6.33
2018-06-11T10:02:01.728Z,5.27
2018-06-11T10:04:32.906Z,4.33
2018-06-11T10:07:04.137Z,9.33
2018-06-11T10:09:35.588Z,4.30
2018-06-11T10:12:07.604Z,4.30
2018-06-11T10:14:39.317Z,4.67
2018-06-11T10:17:11.702Z,3.90
2018-06-11T10:19:43.234Z,9.13
2018-06-11T10:22:14.978Z,4.93
2018-06-11T10:24:46.195Z,5.10
2018-06-11T10:27:17.021Z,5.13
2018-06-11T10:29:47.872Z,7.12
2018-06-11T10:32:18.762Z,5.65
2018-06-11T10:34:49.541Z,7.35
2018-06-11T10:37:20.542Z,6.03
2018-06-11T10:39:51.124Z,8.15
2018-06-11T10:42:22.622Z,7.72
2018-06-11T10:44:53.458Z,7.05
2018-06-11T10:47:24.361Z,7.45
2018-06-11T10:49:55.406Z,4.37
2018-06-11T10:52:26.999Z,6.70
2018-06-11T10:54:57.773Z,14.15
2018-06-11T10:57:29.052Z,10.35
2018-06-11T11:00:00.260Z,4.50
2018-06-11T11:02:30.949Z,5.60
2018-06-11T11:05:00.975Z,11.90
2018-06-11T11:07:31.785Z,6.17
2018-06-11T11:10:02.861Z,7.70
2018-06-11T11:12:33.964Z,6.62
2018-06-11T11:15:04.976Z,5.58
2018-06-11T11:17:36.346Z,7.12
2018-06-11T11:20:07.351Z,3.50
2018-06-11T11:22:38.112Z,4.95
2018-06-11T11:25:08.953Z,5.62
2018-06-11T11:27:40.061Z,4.58
2018-06-11T11:30:11.079Z,4.22
2018-06-11T11:32:41.987Z,7.00
2018-06-11T11:35:14.543Z,4.35
2018-06-11T11:37:45.169Z,6.90
2018-06-11T11:40:16.718Z,3.58
2018-06-11T11:42:48.454Z,5.85
2018-06-11T11:45:20.143Z,4.95
2018-06-11T11:47:51.206Z,3.62
2018-06-11T11:50:22.531Z,4.42
2018-06-11T11:52:53.597Z,3.98
2018-06-11T11:55:24.554Z,3.45
2018-06-11T11:57:55.873Z,5.42
2018-06-11T12:00:28.049Z,5.00
2018-06-11T12:02:59.088Z,5.47
2018-06-11T12:05:29.830Z,6.87
2018-06-11T12:08:00.662Z,4.15
2018-06-11T12:10:32.430Z,5.08
2018-06-11T12:13:03.761Z,3.58
2018-06-11T12:15:34.577Z,4.47
2018-06-11T12:18:05.897Z,3.62
2018-06-11T12:20:37.066Z,5.10
2018-06-11T12:23:08.114Z,3.72
2018-06-11T12:25:39.279Z,5.35
2018-06-11T12:28:10.269Z,4.05
2018-06-11T12:30:40.608Z,4.03
2018-06-11T12:33:11.411Z,3.92
2018-06-11T12:35:42.160Z,3.30
2018-06-11T12:38:13.847Z,4.45
2018-06-11T12:40:44.822Z,6.47
2018-06-11T12:43:15.762Z,6.15
2018-06-11T12:45:46.275Z,7.72
2018-06-11T12:48:17.056Z,5.05
2018-06-11T12:50:47.736Z,9.43
2018-06-11T12:53:19.049Z,3.72
2018-06-11T12:55:50.332Z,8.15
2018-06-11T12:58:21.939Z,5.47
2018-06-11T13:00:53.102Z,4.62
2018-06-11T13:03:24.781Z,6.53
2018-06-11T13:05:55.788Z,3.77
2018-06-11T13:08:27.333Z,7.22
2018-06-11T13:10:58.542Z,6.30
2018-06-11T13:13:29.296Z,4.15
2018-06-11T13:16:00.353Z,5.83
2018-06-11T13:18:32.145Z,10.43
2018-06-11T13:21:03.665Z,5.75
2018-06-11T13:23:35.252Z,4.67
2018-06-11T13:26:06.879Z,8.08
2018-06-11T13:28:38.322Z,4.95
2018-06-11T13:31:09.449Z,3.75
2018-06-11T13:33:40.923Z,5.20
2018-06-11T13:36:13.194Z,4.47
2018-06-11T13:38:44.331Z,4.87
2018-06-11T13:41:15.978Z,4.45
2018-06-11T13:43:47.098Z,4.05
2018-06-11T13:46:17.967Z,4.72
2018-06-11T13:48:48.435Z,6.40
2018-06-11T13:51:19.045Z,4.15
2018-06-11T13:53:50.762Z,3.20
2018-06-11T13:56:22.070Z,3.27
2018-06-11T13:58:54.341Z,7.28
2018-06-11T14:01:26.555Z,10.03
2018-06-11T14:03:57.217Z,4.72
2018-06-11T14:06:28.039Z,5.20
2018-06-11T14:08:58.961Z,4.70
2018-06-11T14:11:29.665Z,3.47
2018-06-11T14:14:00.643Z,4.05
2018-06-11T14:16:31.302Z,4.67
2018-06-11T14:19:02.537Z,3.77
2018-06-11T14:21:33.728Z,4.47
2018-06-11T14:24:04.566Z,4.15
2018-06-11T14:26:35.570Z,4.50
2018-06-11T14:29:06.672Z,3.87
2018-06-11T14:31:38.535Z,3.80
2018-06-11T14:34:09.220Z,5.67
2018-06-11T14:36:40.830Z,4.37
2018-06-11T14:39:12.447Z,5.60
2018-06-11T14:41:43.949Z,4.33
2018-06-11T14:44:15.381Z,4.42
2018-06-11T14:46:46.479Z,7.00
2018-06-11T14:49:17.834Z,4.65
2018-06-11T14:51:49.050Z,5.42
2018-06-11T14:54:20.452Z,3.50
2018-06-11T14:56:51.909Z,6.47
2018-06-11T14:59:23.361Z,4.72
2018-06-11T15:01:54.758Z,3.80
2018-06-11T15:04:26.605Z,5.47
2018-06-11T15:06:58.347Z,6.40
2018-06-11T15:09:29.964Z,3.60
2018-06-11T15:12:01.115Z,4.50
2018-06-11T15:14:31.952Z,4.67
2018-06-11T15:17:04.301Z,5.08
2018-06-11T15:19:35.937Z,3.50
2018-06-11T15:22:07.189Z,6.50
2018-06-11T15:24:38.033Z,5.40
2018-06-11T15:27:09.224Z,3.87
2018-06-11T15:29:41.275Z,4.75
2018-06-11T15:32:12.057Z,6.22
2018-06-11T15:34:44.207Z,9.98
2018-06-11T15:37:14.971Z,5.22
2018-06-11T15:39:45.568Z,3.83
2018-06-11T15:42:15.779Z,5.50
2018-06-11T15:44:46.940Z,5.75
2018-06-11T15:47:17.893Z,12.95
2018-06-11T15:49:47.883Z,8.43
2018-06-11T15:52:18.940Z,12.28
2018-06-11T15:54:49.740Z,9.55
2018-06-11T15:57:21.087Z,5.37
2018-06-11T15:59:52.472Z,4.62
2018-06-11T16:02:23.258Z,7.33
2018-06-11T16:04:54.480Z,3.60
2018-06-11T16:07:25.949Z,13.07
2018-06-11T16:09:57.563Z,21.77
2018-06-11T16:12:28.919Z,19.77
2018-06-11T16:15:00.494Z,16.20
2018-06-11T16:17:31.798Z,17.53
2018-06-11T16:20:03.551Z,7.70
2018-06-11T16:22:35.121Z,6.60
2018-06-11T16:25:06.764Z,3.50
2018-06-11T16:27:38.001Z,7.50
2018-06-11T16:30:09.469Z,4.27
2018-06-11T16:32:40.969Z,6.70
2018-06-11T16:35:12.210Z,17.63
2018-06-11T16:37:43.906Z,25.60
2018-06-11T16:40:15.873Z,32.80
2018-06-11T16:42:47.309Z,17.87
2018-06-11T16:45:17.747Z,10.93
2018-06-11T16:47:49.004Z,13.57
2018-06-11T16:50:19.919Z,5.07
2018-06-11T16:52:51.813Z,3.73
2018-06-11T16:55:23.079Z,5.63
2018-06-11T16:57:53.931Z,7.00
2018-06-11T17:01:55.084Z,4.47
2018-06-11T17:04:26.879Z,6.03
2018-06-11T17:06:57.968Z,6.57
2018-06-11T17:09:28.838Z,33.63
2018-06-11T17:11:59.609Z,73.70
2018-06-11T17:14:30.498Z,105.50
2018-06-11T17:17:01.486Z,31.43
2018-06-11T17:19:32.373Z,12.53
2018-06-11T17:22:03.090Z,9.47
2018-06-11T17:24:33.959Z,5.03
2018-06-11T17:27:04.956Z,7.70
2018-06-11T17:29:35.659Z,7.07
2018-06-11T17:32:06.771Z,3.50
2018-06-11T17:34:37.791Z,8.10
2018-06-11T17:37:08.846Z,12.43
2018-06-11T17:39:39.527Z,10.50
2018-06-11T17:42:10.212Z,30.27
2018-06-11T17:44:41.362Z,44.07
2018-06-11T17:47:11.327Z,28.67
2018-06-11T17:49:42.099Z,13.40
2018-06-11T17:52:12.842Z,8.47
2018-06-11T17:54:43.799Z,5.40
2018-06-11T17:57:14.973Z,6.30
2018-06-11T17:59:46.603Z,4.67
2018-06-11T18:02:17.159Z,46.20
2018-06-11T18:04:47.844Z,16.83
2018-06-11T18:07:18.918Z,37.97
2018-06-11T18:09:49.697Z,8.70
2018-06-11T18:12:20.433Z,11.80
2018-06-11T18:14:51.988Z,10.13
2018-06-11T18:17:22.554Z,12.07
2018-06-11T18:19:53.803Z,18.47
2018-06-11T18:22:25.019Z,75.50
2018-06-11T18:24:56.025Z,50.33
2018-06-11T18:27:27.623Z,25.37
2018-06-11T18:29:59.324Z,17.33
2018-06-11T18:32:30.394Z,31.93
2018-06-11T18:35:01.907Z,26.50
2018-06-11T18:37:33.078Z,18.97
2018-06-11T18:40:04.420Z,21.20
2018-06-11T18:42:35.875Z,11.47
2018-06-11T18:45:06.691Z,6.93
2018-06-11T18:47:38.290Z,8.70
2018-06-11T18:50:09.947Z,7.67
2018-06-11T18:52:41.619Z,12.53
2018-06-11T18:55:13.301Z,11.27
2018-06-11T18:57:44.705Z,8.57
2018-06-11T19:00:16.616Z,10.57
2018-06-11T19:02:47.440Z,8.03
2018-06-11T19:05:17.876Z,10.17
2018-06-11T19:07:49.256Z,9.13
2018-06-11T19:10:20.563Z,6.03
2018-06-11T19:12:51.435Z,8.23
2018-06-11T19:15:22.150Z,8.77
2018-06-11T19:17:53.665Z,8.47
2018-06-11T19:20:25.166Z,6.43
2018-06-11T19:22:56.629Z,7.90
2018-06-11T19:25:28.509Z,7.73
2018-06-11T19:28:00.280Z,8.70
2018-06-11T19:30:30.543Z,10.23
2018-06-11T19:33:01.229Z,10.00
2018-06-11T19:35:32.313Z,10.32
2018-06-11T19:38:03.075Z,8.00
2018-06-11T19:40:34.757Z,8.23
2018-06-11T19:43:05.623Z,10.77
2018-06-11T19:45:36.291Z,8.27
2018-06-11T19:48:07.175Z,7.57
2018-06-11T19:50:38.383Z,9.30
2018-06-11T19:53:09.530Z,8.60
2018-06-11T19:55:41.380Z,10.40
2018-06-11T19:58:12.594Z,8.87
2018-06-11T20:00:43.250Z,7.30
2018-06-11T20:03:13.927Z,7.07
2018-06-11T20:05:45.754Z,12.20
2018-06-11T20:08:16.550Z,11.53
2018-06-11T20:10:47.717Z,7.93
2018-06-11T20:13:19.515Z,7.00
2018-06-11T20:15:50.498Z,10.67
2018-06-11T20:18:20.524Z,7.37
2018-06-11T20:20:52.223Z,7.53
2018-06-11T20:23:23.574Z,6.40
2018-06-11T20:25:54.362Z,5.80
2018-06-11T20:28:25.218Z,5.73
2018-06-11T20:30:56.511Z,5.73
2018-06-11T20:33:28.040Z,6.87
2018-06-11T20:35:58.403Z,6.07
2018-06-11T20:38:29.094Z,6.50
2018-06-11T20:41:00.523Z,8.50
2018-06-11T20:43:32.105Z,7.00
2018-06-11T20:46:04.718Z,7.83
2018-06-11T20:48:36.015Z,8.17
2018-06-11T20:51:07.592Z,5.93
2018-06-11T20:53:38.970Z,8.90
2018-06-11T20:56:10.376Z,14.23
2018-06-11T20:58:40.790Z,6.73
2018-06-11T21:01:12.279Z,6.93
2018-06-11T21:03:42.537Z,7.53
2018-06-11T21:06:13.820Z,6.13
2018-06-11T21:08:45.616Z,6.40
2018-06-11T21:11:17.207Z,6.50
2018-06-11T21:13:48.187Z,8.57
2018-06-11T21:16:19.750Z,10.70
2018-06-11T21:18:51.357Z,5.80
2018-06-11T21:21:22.323Z,5.60
2018-06-11T21:23:53.070Z,5.77
2018-06-11T21:26:23.739Z,7.10
2018-06-11T21:28:55.637Z,6.77
2018-06-11T21:31:27.139Z,7.00
2018-06-11T21:33:58.083Z,7.03
2018-06-11T21:36:29.454Z,5.93
2018-06-11T21:39:00.998Z,7.17
2018-06-11T21:41:32.599Z,5.63
2018-06-11T21:44:04.263Z,5.10
2018-06-11T21:46:35.708Z,5.30
2018-06-11T21:49:06.655Z,7.30
2018-06-11T21:51:37.834Z,7.43
2018-06-11T21:54:08.969Z,7.00
2018-06-11T21:56:40.582Z,7.90
2018-06-11T21:59:11.866Z,7.13
2018-06-11T22:01:43.420Z,8.07
2018-06-11T22:04:14.959Z,6.13
2018-06-11T22:06:46.606Z,7.80
2018-06-11T22:09:18.007Z,5.17
2018-06-11T22:11:49.497Z,5.93
2018-06-11T22:14:20.763Z,11.10
2018-06-11T22:16:52.665Z,8.23
2018-06-11T22:19:23.563Z,7.43
2018-06-11T22:21:54.923Z,6.17
2018-06-11T22:24:26.740Z,6.83
2018-06-11T22:26:58.280Z,8.73
2018-06-11T22:29:29.962Z,13.07
2018-06-11T22:32:01.571Z,7.53
2018-06-11T22:34:32.795Z,7.53
2018-06-11T22:37:03.237Z,6.70
2018-06-11T22:39:34.742Z,7.27
2018-06-11T22:42:05.794Z,8.00
2018-06-11T22:44:36.582Z,6.97
2018-06-11T22:47:08.048Z,6.83
2018-06-11T22:49:39.455Z,7.77
2018-06-11T22:52:10.637Z,8.53
2018-06-11T22:54:42.191Z,7.07
2018-06-11T22:57:12.843Z,9.10
2018-06-11T22:59:44.522Z,6.93
2018-06-11T23:02:15.834Z,7.87
2018-06-11T23:04:46.572Z,8.63
2018-06-11T23:07:17.065Z,8.80
2018-06-11T23:09:47.238Z,8.17
2018-06-11T23:12:17.884Z,8.80
2018-06-11T23:14:48.429Z,11.90
2018-06-11T23:17:19.199Z,7.93
2018-06-11T23:19:50.218Z,8.70
2018-06-11T23:22:21.032Z,7.73
2018-06-11T23:24:51.978Z,7.93
2018-06-11T23:27:22.117Z,9.90
2018-06-11T23:29:53.069Z,9.23
2018-06-11T23:32:24.485Z,7.40
2018-06-11T23:34:55.358Z,9.53
2018-06-11T23:37:26.165Z,7.40
2018-06-11T23:39:57.535Z,8.03
2018-06-11T23:42:28.334Z,7.33
2018-06-11T23:44:59.228Z,7.80
2018-06-11T23:47:30.110Z,7.57
2018-06-11T23:50:01.299Z,8.47
2018-06-11T23:52:32.293Z,8.80
2018-06-11T23:55:03.044Z,8.70
2018-06-11T23:57:34.369Z,8.33
